Maldives Meteorological Service

METAR

Station
VRMM
METAR VRMM 180100Z 25013KT 9999 SCT018TCU BKN280 29/26 Q1009 NOSIG=
VRMH
METAR VRMH 180100Z 27008KT 9999 FEW017TCU BKN120 28/25 Q1009=
VRMK
METAR VRMK 180100Z 26008KT 9999 FEW018 BKN260 29/25 Q1010=
VRMT
METAR VRMT 180000Z 29008KT 9999 TS FEW017 FEW018CB BKN260 28/25 Q1009 RETS CB SE,S=
VRMG
METAR VRMG 180100Z 27009KT 9999 FEW017TCU BKN110 27/25 Q1009 TEMPO 5000 -SHRA=
Last Updated : 2017-10-18 06:01:54

SPECI

Station
VRMM
VRMH
VRMK
VRMT
VRMG
Last Updated : 2017-10-18 06:01:54